Time,TemperatureF,DewpointF,PressureIn,WindDirection,WindDirectionDegrees,WindSpeedMPH,WindSpeedGustMPH,Humidity,HourlyPrecipIn,Conditions,Clouds,dailyrainin,SolarRadiationWatts/m^2,SoftwareType,DateUTC
2013-07-22 00:02:00,66.3,65.4,29.96,WSW,249,0.0,0.0,97,0.00,,BKN060,0.00,0.00,VWS V14.01,2013-07-22 04:02:00,
2013-07-22 00:12:00,66.3,65.4,29.96,WSW,249,0.0,0.0,97,0.00,,BKN060,0.00,0.00,VWS V14.01,2013-07-22 04:12:00,
2013-07-22 00:22:00,66.1,65.5,29.96,WSW,249,0.0,0.0,98,0.00,,BKN060,0.00,0.00,VWS V14.01,2013-07-22 04:22:00,
2013-07-22 00:32:00,66.0,65.7,29.96,WSW,249,0.0,0.0,99,0.00,,BKN060,0.00,0.00,VWS V14.01,2013-07-22 04:32:00,
2013-07-22 00:42:00,66.0,65.4,29.96,WSW,249,0.0,0.0,98,0.00,,BKN060,0.00,0.00,VWS V14.01,2013-07-22 04:42:00,
2013-07-22 00:52:00,65.8,65.5,29.96,WSW,249,0.0,0.0,99,0.00,,BKN060,0.00,0.00,VWS V14.01,2013-07-22 04:52:00,
2013-07-22 01:02:00,65.6,65.3,29.95,WSW,249,0.0,0.0,99,0.00,,FEW060,0.00,0.00,VWS V14.01,2013-07-22 05:02:00,
2013-07-22 01:12:00,65.5,65.2,29.95,WSW,249,0.0,0.0,99,0.00,,FEW060,0.00,0.00,VWS V14.01,2013-07-22 05:12:00,
2013-07-22 01:22:00,65.5,65.2,29.95,WSW,249,0.0,0.0,99,0.00,,FEW060,0.00,0.00,VWS V14.01,2013-07-22 05:22:00,
2013-07-22 01:32:00,65.2,64.9,29.95,WSW,249,0.0,0.0,99,0.00,,BKN060,0.00,0.00,VWS V14.01,2013-07-22 05:32:00,
2013-07-22 01:42:00,65.2,65.2,29.95,WSW,249,0.0,0.0,100,0.00,,BKN060,0.00,0.00,VWS V14.01,2013-07-22 05:42:00,
2013-07-22 01:52:00,64.8,64.8,29.95,WSW,249,0.0,0.0,100,0.00,,BKN060,0.00,0.00,VWS V14.01,2013-07-22 05:52:00,
2013-07-22 02:02:00,65.0,65.0,29.95,WSW,249,0.0,0.0,100,0.00,,SCT060,0.00,0.00,VWS V14.01,2013-07-22 06:02:00,
2013-07-22 02:12:00,65.5,65.5,29.95,WSW,249,0.0,0.0,100,0.00,,SCT060,0.00,0.00,VWS V14.01,2013-07-22 06:12:00,
2013-07-22 02:22:00,65.6,65.3,29.95,WSW,249,0.0,0.0,99,0.00,,SCT060,0.00,0.00,VWS V14.01,2013-07-22 06:22:00,
2013-07-22 02:32:00,65.8,65.5,29.95,WSW,249,0.0,0.0,99,0.00,,FEW019,0.00,0.00,VWS V14.01,2013-07-22 06:32:00,
2013-07-22 02:42:00,66.0,66.0,29.95,WSW,249,0.0,0.0,100,0.00,,FEW019,0.00,0.00,VWS V14.01,2013-07-22 06:42:00,
2013-07-22 02:52:00,66.3,66.3,29.95,WSW,249,0.0,0.0,100,0.00,,FEW019,0.00,0.00,VWS V14.01,2013-07-22 06:52:00,
2013-07-22 03:02:00,66.9,66.6,29.95,WSW,249,0.0,0.0,99,0.00,,FEW019,0.00,0.00,VWS V14.01,2013-07-22 07:02:00,
2013-07-22 03:12:00,66.9,66.3,29.95,WSW,249,0.0,0.0,98,0.00,,FEW019,0.00,0.00,VWS V14.01,2013-07-22 07:12:00,
2013-07-22 03:22:00,66.6,66.0,29.95,WSW,249,0.0,0.0,98,0.00,,FEW019,0.00,0.00,VWS V14.01,2013-07-22 07:22:00,
2013-07-22 03:32:00,66.4,66.1,29.95,WSW,249,0.0,0.0,99,0.00,,FEW019,0.00,0.00,VWS V14.01,2013-07-22 07:32:00,
2013-07-22 03:42:00,66.4,65.8,29.95,WSW,249,0.0,1.0,98,0.00,,FEW019,0.00,0.00,VWS V14.01,2013-07-22 07:42:00,
2013-07-22 03:52:00,66.6,66.0,29.95,WSW,249,0.0,0.0,98,0.00,,FEW019,0.00,0.00,VWS V14.01,2013-07-22 07:52:00,
2013-07-22 04:02:00,66.3,65.4,29.95,WSW,248,0.0,0.0,97,0.00,,SCT009,0.00,0.00,VWS V14.01,2013-07-22 08:02:00,
2013-07-22 04:12:00,65.6,65.3,29.95,WSW,245,0.0,0.0,99,0.00,,SCT009,0.00,0.00,VWS V14.01,2013-07-22 08:12:00,
2013-07-22 04:22:00,65.5,64.9,29.95,SW,226,0.0,0.0,98,0.00,,SCT009,0.00,0.00,VWS V14.01,2013-07-22 08:22:00,
2013-07-22 04:32:00,65.2,64.6,29.95,SW,214,0.0,0.0,98,0.00,,CLR,0.00,0.00,VWS V14.01,2013-07-22 08:32:00,
2013-07-22 04:42:00,64.8,64.5,29.95,SSW,206,0.0,0.0,99,0.00,,CLR,0.00,0.00,VWS V14.01,2013-07-22 08:42:00,
2013-07-22 04:52:00,64.7,64.4,29.96,South,169,0.0,0.0,99,0.00,,CLR,0.00,0.00,VWS V14.01,2013-07-22 08:52:00,
2013-07-22 05:02:00,64.5,64.2,29.96,South,169,0.0,0.0,99,0.00,,SCT011,0.00,0.00,VWS V14.01,2013-07-22 09:02:00,
2013-07-22 05:12:00,64.3,64.0,29.96,South,169,0.0,0.0,99,0.00,,SCT011,0.00,0.00,VWS V14.01,2013-07-22 09:12:00,
2013-07-22 05:22:00,64.3,64.0,29.96,East,86,0.0,0.0,99,0.00,,SCT011,0.00,0.00,VWS V14.01,2013-07-22 09:22:00,
2013-07-22 05:32:00,64.2,64.2,29.97,East,86,0.0,0.0,100,0.00,,FEW011,0.00,5.00,VWS V14.01,2013-07-22 09:32:00,
2013-07-22 05:42:00,64.3,64.3,29.97,East,86,0.0,0.0,100,0.00,,FEW011,0.00,14.00,VWS V14.01,2013-07-22 09:42:00,
2013-07-22 05:52:00,64.5,64.2,29.97,East,86,0.0,0.0,99,0.00,,FEW011,0.00,32.00,VWS V14.01,2013-07-22 09:52:00,
2013-07-22 06:02:00,65.2,64.6,29.97,East,87,0.0,0.0,98,0.00,,CLR,0.00,23.00,VWS V14.01,2013-07-22 10:02:00,
2013-07-22 06:12:00,65.3,64.4,29.97,East,87,0.0,0.0,97,0.00,,CLR,0.00,28.00,VWS V14.01,2013-07-22 10:12:00,
2013-07-22 06:22:00,65.6,64.4,29.97,East,87,0.0,0.0,96,0.00,,CLR,0.00,39.00,VWS V14.01,2013-07-22 10:22:00,
2013-07-22 06:32:00,66.1,64.3,29.97,ENE,58,2.0,6.0,94,0.00,,SCT075,0.00,49.00,VWS V14.01,2013-07-22 10:32:00,
2013-07-22 06:42:00,66.4,64.3,29.97,ENE,63,2.0,6.0,93,0.00,,SCT075,0.00,65.00,VWS V14.01,2013-07-22 10:42:00,
2013-07-22 06:52:00,66.8,63.8,29.97,ENE,64,4.0,7.0,90,0.00,,SCT075,0.00,79.00,VWS V14.01,2013-07-22 10:52:00,
2013-07-22 07:12:00,66.9,63.9,29.97,NE,52,6.0,11.0,90,0.00,,SCT075,0.00,104.00,VWS V14.01,2013-07-22 11:12:00,
2013-07-22 07:22:00,66.3,63.3,29.99,East,80,5.0,10.0,90,0.00,,SCT075,0.00,62.00,VWS V14.01,2013-07-22 11:22:00,
2013-07-22 07:32:00,66.1,63.4,29.99,East,79,3.0,7.0,91,0.00,,BKN075,0.00,53.00,VWS V14.01,2013-07-22 11:32:00,
2013-07-22 07:42:00,66.3,63.9,29.99,NE,53,4.0,7.0,92,0.00,,BKN075,0.00,91.00,VWS V14.01,2013-07-22 11:42:00,
2013-07-22 07:52:00,66.4,63.7,29.99,ENE,62,4.0,7.0,91,0.00,,BKN075,0.00,125.00,VWS V14.01,2013-07-22 11:52:00,
2013-07-22 08:02:00,66.8,64.1,29.99,ESE,103,3.0,9.0,91,0.00,,BKN075,0.00,76.00,VWS V14.01,2013-07-22 12:02:00,
2013-07-22 08:12:00,66.6,63.9,29.99,East,82,1.0,6.0,91,0.00,,BKN075,0.00,77.00,VWS V14.01,2013-07-22 12:12:00,
2013-07-22 08:22:00,66.8,64.4,29.99,NE,51,4.0,8.0,92,0.00,,BKN075,0.00,51.00,VWS V14.01,2013-07-22 12:22:00,
2013-07-22 08:32:00,66.6,63.9,29.99,East,85,1.0,6.0,91,0.00,,OVC009,0.00,46.00,VWS V14.01,2013-07-22 12:32:00,
2013-07-22 08:42:00,67.1,64.4,29.99,East,81,4.0,4.0,91,0.00,,OVC009,0.00,97.00,VWS V14.01,2013-07-22 12:42:00,
2013-07-22 08:52:00,67.3,64.6,29.99,ENE,57,5.0,6.0,91,0.00,,OVC009,0.00,114.00,VWS V14.01,2013-07-22 12:52:00,
2013-07-22 09:02:00,67.3,64.3,29.99,NE,56,0.0,9.0,90,0.00,,OVC014,0.00,95.00,VWS V14.01,2013-07-22 13:02:00,
2013-07-22 09:12:00,67.4,64.4,29.99,NE,52,5.0,6.0,90,0.00,,OVC014,0.00,81.00,VWS V14.01,2013-07-22 13:12:00,
2013-07-22 09:22:00,67.3,64.3,29.99,ENE,62,6.0,7.0,90,0.00,,OVC014,0.00,62.00,VWS V14.01,2013-07-22 13:22:00,
2013-07-22 09:32:00,67.1,64.1,29.99,ENE,60,4.0,7.0,90,0.00,,OVC012,0.00,81.00,VWS V14.01,2013-07-22 13:32:00,
2013-07-22 09:42:00,67.3,64.0,29.99,ENE,60,0.0,4.0,89,0.00,,OVC012,0.00,95.00,VWS V14.01,2013-07-22 13:42:00,
2013-07-22 09:52:00,67.3,64.3,29.99,ENE,78,4.0,5.0,90,0.00,,OVC012,0.00,63.00,VWS V14.01,2013-07-22 13:52:00,
2013-07-22 10:02:00,67.4,64.4,30.00,ENE,75,1.0,5.0,90,0.00,,OVC014,0.00,58.00,VWS V14.01,2013-07-22 14:02:00,
2013-07-22 10:12:00,67.1,64.7,30.00,ENE,75,0.0,2.0,92,0.00,,OVC014,0.00,79.00,VWS V14.01,2013-07-22 14:12:00,
2013-07-22 10:22:00,66.9,65.7,30.00,ENE,75,0.0,0.0,96,0.01,,OVC014,0.01,104.00,VWS V14.01,2013-07-22 14:22:00,
2013-07-22 10:32:00,67.1,65.6,30.00,ENE,75,0.0,1.0,95,0.01,,OVC013,0.01,121.00,VWS V14.01,2013-07-22 14:32:00,
2013-07-22 10:42:00,67.1,66.5,30.00,ENE,75,0.0,0.0,98,0.02,,OVC013,0.02,102.00,VWS V14.01,2013-07-22 14:42:00,
2013-07-22 10:52:00,66.8,66.2,30.00,ENE,75,0.0,0.0,98,0.03,,OVC013,0.03,120.00,VWS V14.01,2013-07-22 14:52:00,
2013-07-22 11:02:00,66.6,66.6,30.00,ENE,75,2.0,5.0,100,0.07,,OVC013,0.07,102.00,VWS V14.01,2013-07-22 15:02:00,
2013-07-22 11:12:00,66.8,66.8,30.00,East,79,4.0,5.0,100,0.11,,OVC013,0.11,104.00,VWS V14.01,2013-07-22 15:12:00,
2013-07-22 11:22:00,66.9,66.9,30.00,East,79,0.0,4.0,100,0.14,,OVC013,0.14,127.00,VWS V14.01,2013-07-22 15:22:00,
2013-07-22 11:32:00,66.8,66.8,30.00,East,79,0.0,0.0,100,0.16,,BKN043,0.17,84.00,VWS V14.01,2013-07-22 15:32:00,
2013-07-22 11:42:00,66.4,66.4,30.00,East,79,0.0,4.0,100,0.22,,BKN043,0.23,105.00,VWS V14.01,2013-07-22 15:42:00,
2013-07-22 11:52:00,66.4,66.4,29.99,East,80,0.0,3.0,100,0.22,,BKN043,0.24,156.00,VWS V14.01,2013-07-22 15:52:00,
2013-07-22 12:02:00,67.1,67.1,29.99,East,80,0.0,2.0,100,0.21,,BKN039,0.24,179.00,VWS V14.01,2013-07-22 16:02:00,
2013-07-22 12:12:00,67.3,67.3,29.99,East,80,0.0,3.0,100,0.17,,BKN039,0.24,183.00,VWS V14.01,2013-07-22 16:12:00,
2013-07-22 12:22:00,67.6,67.6,29.99,East,80,0.0,3.0,100,0.13,,BKN039,0.24,144.00,VWS V14.01,2013-07-22 16:22:00,
2013-07-22 12:32:00,67.8,67.8,29.98,East,80,0.0,3.0,100,0.10,,BKN060,0.24,160.00,VWS V14.01,2013-07-22 16:32:00,
2013-07-22 12:42:00,67.6,67.6,29.98,ENE,78,3.0,4.0,100,0.07,,BKN060,0.24,155.00,VWS V14.01,2013-07-22 16:42:00,
2013-07-22 12:52:00,68.1,67.8,29.98,ENE,78,2.0,5.0,99,0.01,,BKN060,0.24,336.00,VWS V14.01,2013-07-22 16:52:00,
2013-07-22 13:02:00,68.4,67.8,29.97,ENE,77,3.0,7.0,98,0.00,,BKN085,0.24,220.00,VWS V14.01,2013-07-22 17:02:00,
2013-07-22 13:12:00,68.4,68.1,29.97,ENE,78,3.0,10.0,99,0.00,,BKN085,0.24,120.00,VWS V14.01,2013-07-22 17:12:00,
2013-07-22 13:22:00,68.3,68.3,29.97,ENE,71,3.0,5.0,100,0.00,,BKN085,0.24,132.00,VWS V14.01,2013-07-22 17:22:00,
2013-07-22 13:32:00,68.4,68.4,29.97,East,80,3.0,4.0,100,0.00,,SCT080,0.24,299.00,VWS V14.01,2013-07-22 17:32:00,
2013-07-22 13:42:00,69.1,68.8,29.97,East,79,4.0,7.0,99,0.00,,SCT080,0.24,251.00,VWS V14.01,2013-07-22 17:42:00,
2013-07-22 13:52:00,69.6,69.0,29.97,NE,51,3.0,6.0,98,0.00,,SCT080,0.24,287.00,VWS V14.01,2013-07-22 17:52:00,
2013-07-22 14:02:00,70.1,68.3,29.96,ENE,59,3.0,5.0,94,0.00,,FEW080,0.24,343.00,VWS V14.01,2013-07-22 18:02:00,
2013-07-22 14:12:00,70.1,69.2,29.96,ENE,57,4.0,7.0,97,0.00,,FEW080,0.24,388.00,VWS V14.01,2013-07-22 18:12:00,
2013-07-22 14:22:00,69.9,68.4,29.96,East,87,4.0,6.0,95,0.00,,FEW080,0.24,272.00,VWS V14.01,2013-07-22 18:22:00,
2013-07-22 14:32:00,69.8,68.3,29.95,NE,53,5.0,7.0,95,0.00,,OVC018,0.24,197.00,VWS V14.01,2013-07-22 18:32:00,
2013-07-22 14:42:00,69.9,68.4,29.95,ENE,60,2.0,8.0,95,0.00,,OVC018,0.24,204.00,VWS V14.01,2013-07-22 18:42:00,
2013-07-22 14:52:00,69.4,67.9,29.95,East,84,3.0,7.0,95,0.00,,OVC018,0.24,148.00,VWS V14.01,2013-07-22 18:52:00,
2013-07-22 15:02:00,69.6,68.4,29.95,ENE,77,3.0,7.0,96,0.00,,OVC018,0.24,98.00,VWS V14.01,2013-07-22 19:02:00,
2013-07-22 15:12:00,69.4,68.5,29.95,East,83,4.0,5.0,97,0.00,,OVC018,0.24,125.00,VWS V14.01,2013-07-22 19:12:00,
2013-07-22 15:22:00,69.8,67.7,29.94,East,82,3.0,7.0,93,0.00,,OVC018,0.24,134.00,VWS V14.01,2013-07-22 19:22:00,
2013-07-22 15:32:00,69.8,68.6,29.94,ENE,76,3.0,6.0,96,0.00,,OVC022,0.24,90.00,VWS V14.01,2013-07-22 19:32:00,
2013-07-22 15:42:00,69.8,68.0,29.94,ENE,64,4.0,6.0,94,0.00,,OVC022,0.24,98.00,VWS V14.01,2013-07-22 19:42:00,
2013-07-22 15:52:00,69.4,67.9,29.94,ENE,71,3.0,5.0,95,0.00,,OVC022,0.24,72.00,VWS V14.01,2013-07-22 19:52:00,
2013-07-22 16:02:00,69.4,67.9,29.94,ENE,64,3.0,6.0,95,0.00,,OVC022,0.24,46.00,VWS V14.01,2013-07-22 20:02:00,
2013-07-22 16:12:00,69.6,68.1,29.94,ENE,64,3.0,5.0,95,0.00,,OVC014,0.24,155.00,VWS V14.01,2013-07-22 20:12:00,
2013-07-22 16:22:00,70.6,68.2,29.93,ENE,64,3.0,6.0,92,0.00,,OVC014,0.24,251.00,VWS V14.01,2013-07-22 20:22:00,
2013-07-22 16:32:00,73.7,70.6,29.93,NE,41,6.0,7.0,90,0.00,,BKN016,0.24,686.00,VWS V14.01,2013-07-22 20:32:00,
2013-07-22 16:42:00,71.6,68.8,29.93,NE,49,5.0,8.0,91,0.00,,BKN016,0.24,236.00,VWS V14.01,2013-07-22 20:42:00,
2013-07-22 16:52:00,72.0,68.6,29.92,ENE,70,5.0,10.0,89,0.00,,BKN016,0.24,199.00,VWS V14.01,2013-07-22 20:52:00,
2013-07-22 17:02:00,72.7,68.9,29.92,NE,42,7.0,9.0,88,0.00,,BKN035,0.24,192.00,VWS V14.01,2013-07-22 21:02:00,
2013-07-22 17:12:00,72.5,68.1,29.92,NE,49,10.0,12.0,86,0.01,,BKN035,0.25,162.00,VWS V14.01,2013-07-22 21:12:00,
2013-07-22 17:22:00,74.4,68.6,29.91,NE,53,6.0,10.0,82,0.01,,BKN035,0.25,436.00,VWS V14.01,2013-07-22 21:22:00,
2013-07-22 17:32:00,72.8,68.7,29.91,East,101,3.0,10.0,87,0.01,,BKN035,0.25,142.00,VWS V14.01,2013-07-22 21:32:00,
2013-07-22 17:42:00,73.2,68.8,29.91,ENE,60,0.0,9.0,86,0.01,,BKN035,0.25,315.00,VWS V14.01,2013-07-22 21:42:00,
2013-07-22 17:52:00,73.0,67.9,29.90,ESE,104,4.0,9.0,84,0.01,,BKN035,0.25,153.00,VWS V14.01,2013-07-22 21:52:00,
2013-07-22 18:02:00,73.0,69.2,29.89,NE,53,5.0,9.0,88,0.01,,SCT034,0.25,281.00,VWS V14.01,2013-07-22 22:02:00,
2013-07-22 18:12:00,72.5,68.1,29.89,NE,42,6.0,9.0,86,0.01,,SCT034,0.25,105.00,VWS V14.01,2013-07-22 22:12:00,
2013-07-22 18:22:00,72.8,68.0,29.89,ENE,66,4.0,7.0,85,0.00,,SCT034,0.25,236.00,VWS V14.01,2013-07-22 22:22:00,
2013-07-22 18:32:00,72.7,68.6,29.89,East,79,4.0,10.0,87,0.00,,SCT034,0.25,139.00,VWS V14.01,2013-07-22 22:32:00,
2013-07-22 18:42:00,71.8,68.7,29.89,NE,53,5.0,8.0,90,0.00,,SCT027,0.25,100.00,VWS V14.01,2013-07-22 22:42:00,
2013-07-22 18:52:00,71.8,68.1,29.89,ENE,74,5.0,6.0,88,0.00,,SCT027,0.25,53.00,VWS V14.01,2013-07-22 22:52:00,
2013-07-22 19:02:00,71.5,68.1,29.89,ENE,77,0.0,5.0,89,0.00,,SCT024,0.25,30.00,VWS V14.01,2013-07-22 23:02:00,
2013-07-22 19:12:00,71.3,68.2,29.89,ENE,77,3.0,4.0,90,0.00,,SCT024,0.25,12.00,VWS V14.01,2013-07-22 23:12:00,
2013-07-22 19:22:00,70.8,69.0,29.89,ENE,77,2.0,3.0,94,0.00,,SCT024,0.25,19.00,VWS V14.01,2013-07-22 23:22:00,
2013-07-22 19:32:00,70.4,69.5,29.89,ENE,77,0.0,4.0,97,0.00,,FEW028,0.25,18.00,VWS V14.01,2013-07-22 23:32:00,
2013-07-22 19:42:00,70.4,68.9,29.89,ENE,77,2.0,3.0,95,0.00,,FEW028,0.25,11.00,VWS V14.01,2013-07-22 23:42:00,
2013-07-22 19:52:00,70.6,68.8,29.89,ENE,77,0.0,4.0,94,0.00,,FEW028,0.25,0.00,VWS V14.01,2013-07-22 23:52:00,
2013-07-22 20:02:00,70.6,67.8,29.88,East,79,0.0,4.0,91,0.00,,FEW028,0.25,0.00,VWS V14.01,2013-07-23 00:02:00,
2013-07-22 20:12:00,70.6,67.8,29.88,East,79,0.0,0.0,91,0.00,,SCT030,0.25,0.00,VWS V14.01,2013-07-23 00:12:00,
2013-07-22 20:22:00,70.1,67.4,29.88,East,79,0.0,0.0,91,0.00,,SCT030,0.25,0.00,VWS V14.01,2013-07-23 00:22:00,
2013-07-22 20:32:00,69.8,67.1,29.88,East,79,0.0,0.0,91,0.00,,BKN025,0.25,0.00,VWS V14.01,2013-07-23 00:32:00,
2013-07-22 20:42:00,69.3,67.2,29.88,East,79,0.0,0.0,93,0.00,,BKN025,0.25,0.00,VWS V14.01,2013-07-23 00:42:00,
2013-07-22 20:52:00,69.1,66.7,29.88,East,79,0.0,0.0,92,0.00,,BKN025,0.25,0.00,VWS V14.01,2013-07-23 00:52:00,
2013-07-22 21:02:00,68.8,66.7,29.89,East,84,0.0,0.0,93,0.00,,BKN025,0.25,0.00,VWS V14.01,2013-07-23 01:02:00,
2013-07-22 21:12:00,68.4,66.9,29.89,East,84,0.0,0.0,95,0.00,,BKN025,0.25,0.00,VWS V14.01,2013-07-23 01:12:00,
2013-07-22 21:22:00,67.9,66.7,29.90,East,84,0.0,0.0,96,0.00,,BKN025,0.25,0.00,VWS V14.01,2013-07-23 01:22:00,
2013-07-22 21:32:00,67.8,66.3,29.90,East,84,0.0,0.0,95,0.00,,BKN025,0.25,0.00,VWS V14.01,2013-07-23 01:32:00,
2013-07-22 21:42:00,67.9,64.9,29.90,East,84,0.0,0.0,90,0.00,,BKN025,0.25,0.00,VWS V14.01,2013-07-23 01:42:00,
2013-07-22 21:52:00,67.8,65.4,29.90,East,82,0.0,0.0,92,0.00,,BKN025,0.25,0.00,VWS V14.01,2013-07-23 01:52:00,
2013-07-22 22:02:00,67.6,64.6,29.90,East,82,0.0,0.0,90,0.00,,BKN025,0.25,0.00,VWS V14.01,2013-07-23 02:02:00,
2013-07-22 22:12:00,67.4,64.1,29.90,East,84,0.0,0.0,89,0.00,,CLR,0.25,0.00,VWS V14.01,2013-07-23 02:12:00,
2013-07-22 22:22:00,67.4,63.7,29.90,East,91,0.0,0.0,88,0.00,,CLR,0.25,0.00,VWS V14.01,2013-07-23 02:22:00,
2013-07-22 22:32:00,66.6,64.2,29.89,East,87,0.0,0.0,92,0.00,,CLR,0.25,0.00,VWS V14.01,2013-07-23 02:32:00,
2013-07-22 22:42:00,67.1,62.8,29.89,East,87,0.0,0.0,86,0.00,,CLR,0.25,0.00,VWS V14.01,2013-07-23 02:42:00,
2013-07-22 22:52:00,66.8,63.5,29.89,East,87,0.0,0.0,89,0.00,,CLR,0.25,0.00,VWS V14.01,2013-07-23 02:52:00,
2013-07-22 23:02:00,66.4,63.7,29.88,East,87,0.0,0.0,91,0.00,,CLR,0.25,0.00,VWS V14.01,2013-07-23 03:02:00,
2013-07-22 23:12:00,66.0,63.3,29.88,East,82,0.0,0.0,91,0.00,,CLR,0.25,0.00,VWS V14.01,2013-07-23 03:12:00,
2013-07-22 23:22:00,66.0,63.3,29.88,East,79,0.0,0.0,91,0.00,,CLR,0.25,0.00,VWS V14.01,2013-07-23 03:22:00,
2013-07-22 23:32:00,66.3,62.0,29.88,ENE,75,0.0,0.0,86,0.00,,CLR,0.25,0.00,VWS V14.01,2013-07-23 03:32:00,
2013-07-22 23:42:00,66.1,60.8,29.88,ENE,68,0.0,0.0,83,0.00,,CLR,0.25,0.00,VWS V14.01,2013-07-23 03:42:00,
2013-07-22 23:52:00,66.0,60.0,29.88,ENE,76,0.0,0.0,81,0.00,,CLR,0.25,0.00,VWS V14.01,2013-07-23 03:52:00,